createdAt,value
2022-09-10T00:01:40.602Z,101034.72
2022-09-10T00:04:13.053Z,101034.69
2022-09-10T00:06:42.269Z,101019.78
2022-09-10T00:09:13.704Z,101011.91
2022-09-10T00:11:43.013Z,100987.38
2022-09-10T00:14:15.196Z,101038.16
2022-09-10T00:16:43.554Z,101017.13
2022-09-10T00:19:12.501Z,101026.78
2022-09-10T00:21:40.716Z,101034.72
2022-09-10T00:24:09.317Z,101027.66
2022-09-10T00:26:39.974Z,101024.22
2022-09-10T00:29:10.790Z,101018.06
2022-09-10T00:31:40.238Z,101025.94
2022-09-10T00:34:09.237Z,101036.47
2022-09-10T00:36:41.263Z,101014.38
2022-09-10T00:39:12.242Z,101031.16
2022-09-10T00:41:45.574Z,101042.53
2022-09-10T00:44:59.731Z,101034.59
2022-09-10T00:47:34.778Z,101018.75
2022-09-10T00:50:15.658Z,101033.75
2022-09-10T00:52:47.436Z,101000.44
2022-09-10T00:55:17.228Z,101044.31
2022-09-10T00:57:50.433Z,100989.78
2022-09-10T01:00:19.515Z,101033.63
2022-09-10T01:02:48.833Z,101037.03
2022-09-10T01:05:20.558Z,101012.56
2022-09-10T01:07:49.207Z,101020.47
2022-09-10T01:10:23.714Z,101020.47
2022-09-10T01:13:31.122Z,101009.09
2022-09-10T01:16:11.617Z,101010.84
2022-09-10T01:18:53.339Z,101026.63
2022-09-10T01:21:27.494Z,101029.31
2022-09-10T01:24:39.733Z,101024.06
2022-09-10T01:27:41.471Z,101002.91
2022-09-10T01:30:15.795Z,101013.41
2022-09-10T01:32:58.313Z,101031.84
2022-09-10T01:35:39.291Z,101034.44
2022-09-10T01:38:15.492Z,101021.34
2022-09-10T01:40:44.835Z,101039.84
2022-09-10T01:43:18.462Z,100981.78
2022-09-10T01:46:06.238Z,101028.31
2022-09-10T01:49:09.314Z,100980.03
2022-09-10T01:51:58.717Z,101023.84
2022-09-10T01:54:47.807Z,101032.72
2022-09-10T01:57:30.638Z,101031.91
2022-09-10T02:00:09.677Z,100998.56
2022-09-10T02:02:49.891Z,101031.94
2022-09-10T02:05:22.046Z,101008.13
2022-09-10T02:07:59.934Z,101033.56
2022-09-10T02:10:29.032Z,101021.25
2022-09-10T02:12:58.008Z,101031.81
2022-09-10T02:15:56.678Z,101029.25
2022-09-10T02:18:28.009Z,101033.63
2022-09-10T02:20:58.508Z,101032.78
2022-09-10T02:23:35.898Z,101038.97
2022-09-10T02:26:04.434Z,101005.59
2022-09-10T02:28:32.880Z,100964.28
2022-09-10T02:31:02.733Z,100989.81
2022-09-10T02:33:31.973Z,100979.16
2022-09-10T02:36:00.796Z,101023.84
2022-09-10T02:38:30.536Z,101002.88
2022-09-10T02:40:59.430Z,101016.84
2022-09-10T02:43:27.787Z,101008.88
2022-09-10T02:45:58.897Z,100958.88
2022-09-10T02:48:31.125Z,100986.13
2022-09-10T02:50:59.962Z,100995.78
2022-09-10T02:53:31.128Z,101014.16
2022-09-10T02:56:03.914Z,100965.06
2022-09-10T02:58:34.199Z,100966.81
2022-09-10T03:01:09.727Z,101011.56
2022-09-10T03:03:41.819Z,100976.53
2022-09-10T03:06:10.838Z,100996.69
2022-09-10T03:08:39.311Z,101019.47
2022-09-10T03:11:08.125Z,101001.97
2022-09-10T03:13:36.810Z,101008.94
2022-09-10T03:16:05.220Z,100994.97
2022-09-10T03:18:35.386Z,101010.63
2022-09-10T03:21:14.939Z,100815.16
2022-09-10T03:23:44.826Z,101004.44
2022-09-10T03:26:15.104Z,100958.00
2022-09-10T03:28:45.847Z,101007.25
2022-09-10T03:31:16.430Z,100960.75
2022-09-10T03:33:48.301Z,101003.69
2022-09-10T03:36:19.068Z,100969.41
2022-09-10T03:38:49.793Z,101012.34
2022-09-10T03:41:18.141Z,100970.25
2022-09-10T03:43:47.668Z,100989.50
2022-09-10T03:46:16.964Z,100902.81
2022-09-10T03:48:50.084Z,100973.81
2022-09-10T03:51:25.819Z,100988.75
2022-09-10T03:53:54.113Z,100993.09
2022-09-10T03:56:23.300Z,100968.56
2022-09-10T03:58:51.954Z,100971.19
2022-09-10T04:01:21.193Z,100985.28
2022-09-10T04:03:50.463Z,100975.53
2022-09-10T04:06:18.826Z,100992.19
2022-09-10T04:08:50.348Z,100927.31
2022-09-10T04:11:20.514Z,100986.00
2022-09-10T04:13:49.428Z,100985.97
2022-09-10T04:16:18.601Z,100980.78
2022-09-10T04:18:47.408Z,100957.19
2022-09-10T04:21:17.644Z,100987.06
2022-09-10T04:23:49.906Z,101000.28
2022-09-10T04:26:20.437Z,101002.03
2022-09-10T04:28:50.927Z,100994.97
2022-09-10T04:31:19.979Z,100998.50
2022-09-10T04:33:49.034Z,100931.88
2022-09-10T04:36:20.829Z,101006.47
2022-09-10T04:38:51.361Z,100973.09
2022-09-10T04:41:19.878Z,100966.94
2022-09-10T04:43:49.715Z,101007.25
2022-09-10T04:46:18.732Z,100992.34
2022-09-10T04:48:50.011Z,100973.84
2022-09-10T04:51:22.233Z,101005.50
2022-09-10T04:53:54.843Z,100996.69
2022-09-10T04:56:27.639Z,100993.22
2022-09-10T04:58:56.330Z,100975.63
2022-09-10T05:01:24.860Z,100987.06
2022-09-10T05:03:54.686Z,100970.50
2022-09-10T05:06:23.304Z,101008.19
2022-09-10T05:08:51.977Z,101008.19
2022-09-10T05:11:22.282Z,101002.84
2022-09-10T05:13:50.769Z,101007.22
2022-09-10T05:16:22.659Z,101004.63
2022-09-10T05:18:51.036Z,100954.56
2022-09-10T05:21:20.303Z,101006.25
2022-09-10T05:23:49.080Z,101001.03
2022-09-10T05:26:17.378Z,101003.75
2022-09-10T05:28:47.683Z,101004.69
2022-09-10T05:31:17.905Z,100947.66
2022-09-10T05:33:47.276Z,101007.31
2022-09-10T05:36:15.928Z,100977.41
2022-09-10T05:38:46.463Z,101007.28
2022-09-10T05:41:16.754Z,100997.53
2022-09-10T05:43:49.510Z,100954.59
2022-09-10T05:46:18.274Z,101006.34
2022-09-10T05:48:50.649Z,100993.13
2022-09-10T05:51:20.301Z,101015.06
2022-09-10T05:53:50.849Z,100994.91
2022-09-10T05:56:20.577Z,100999.28
2022-09-10T05:58:50.361Z,101016.88
2022-09-10T06:01:19.579Z,101017.63
2022-09-10T06:03:51.192Z,101007.19
2022-09-10T06:06:20.299Z,101024.75
2022-09-10T06:08:59.401Z,101024.84
2022-09-10T06:11:45.394Z,100973.81
2022-09-10T06:14:15.616Z,101023.06
2022-09-10T06:16:44.039Z,101020.41
2022-09-10T06:19:13.147Z,101030.91
2022-09-10T06:21:41.517Z,101030.78
2022-09-10T06:24:10.994Z,100989.41
2022-09-10T06:26:42.692Z,101010.44
2022-09-10T06:29:15.669Z,101033.25
2022-09-10T06:31:44.857Z,101039.38
2022-09-10T06:34:14.003Z,100964.78
2022-09-10T06:36:43.631Z,100956.91
2022-09-10T06:39:14.118Z,101022.69
2022-09-10T06:41:50.242Z,101049.00
2022-09-10T06:44:39.411Z,101054.16
2022-09-10T06:48:12.746Z,101055.09
2022-09-10T06:50:12.825Z,101061.91
2022-09-10T06:52:44.590Z,101060.00
2022-09-10T06:55:15.139Z,101054.69
2022-09-10T06:57:47.420Z,101008.94
2022-09-10T07:00:19.636Z,101038.66
2022-09-10T07:02:54.197Z,101072.00
2022-09-10T07:05:24.099Z,101067.50
2022-09-10T07:07:54.945Z,101068.63
2022-09-10T07:10:23.764Z,101050.28
2022-09-10T07:12:53.179Z,101066.03
2022-09-10T07:15:24.971Z,101081.69
2022-09-10T07:17:53.354Z,101053.44
2022-09-10T07:20:25.722Z,101061.88
2022-09-10T07:22:55.279Z,101075.97
2022-09-10T07:25:27.841Z,101053.03
2022-09-10T07:28:13.107Z,101091.59
2022-09-10T07:30:47.396Z,101091.75
2022-09-10T07:33:17.051Z,101090.72
2022-09-10T07:35:46.441Z,101096.44
2022-09-10T07:38:17.277Z,101100.59
2022-09-10T07:40:48.293Z,101081.09
2022-09-10T07:43:17.509Z,101102.00
2022-09-10T07:45:47.480Z,101053.50
2022-09-10T07:48:16.249Z,101099.94
2022-09-10T07:50:45.429Z,101097.66
2022-09-10T07:53:17.883Z,101101.38
2022-09-10T07:55:47.705Z,101068.03
2022-09-10T07:58:16.496Z,101051.63
2022-09-10T08:00:47.738Z,101108.47
2022-09-10T08:03:18.463Z,101114.69
2022-09-10T08:05:48.763Z,101120.97
2022-09-10T08:08:17.259Z,101106.06
2022-09-10T08:10:45.903Z,101126.19
2022-09-10T08:13:16.721Z,101098.81
2022-09-10T08:15:45.977Z,101134.03
2022-09-10T08:18:15.811Z,101137.50
2022-09-10T08:20:44.302Z,101118.22
2022-09-10T08:23:12.784Z,101148.06
2022-09-10T08:25:49.987Z,101140.31
2022-09-10T08:28:22.442Z,101146.53
2022-09-10T08:31:00.570Z,101153.47
2022-09-10T08:33:31.974Z,101162.84
2022-09-10T08:36:01.432Z,101130.41
2022-09-10T08:38:34.455Z,101168.81
2022-09-10T08:41:09.632Z,101177.47
2022-09-10T08:43:45.872Z,101176.47
2022-09-10T08:46:23.886Z,101178.63
2022-09-10T08:49:05.922Z,101151.91
2022-09-10T08:51:42.482Z,101168.47
2022-09-10T08:54:17.320Z,101172.41
2022-09-10T08:56:47.064Z,101136.50
2022-09-10T08:59:23.127Z,101169.91
2022-09-10T09:01:59.382Z,101161.63
2022-09-10T09:04:44.017Z,101183.63
2022-09-10T09:07:15.768Z,101183.41
2022-09-10T09:09:48.987Z,101178.66
2022-09-10T09:12:31.470Z,101173.84
2022-09-10T09:15:11.418Z,101169.00
2022-09-10T09:18:04.712Z,101166.41
2022-09-10T09:20:46.573Z,101174.41
2022-09-10T09:23:23.363Z,101178.78
2022-09-10T09:26:08.718Z,101150.59
2022-09-10T09:28:45.172Z,101161.00
2022-09-10T09:31:18.289Z,101160.31
2022-09-10T09:33:54.131Z,101030.88
2022-09-10T09:36:32.118Z,101157.94
2022-09-10T09:39:00.638Z,101129.25
2022-09-10T09:41:36.390Z,101175.63
2022-09-10T09:44:17.016Z,101140.13
2022-09-10T09:46:45.605Z,101138.81
2022-09-10T09:49:16.992Z,101178.56
2022-09-10T09:51:52.056Z,101197.00
2022-09-10T09:55:03.152Z,101200.81
2022-09-10T09:57:19.599Z,101132.50
2022-09-10T09:59:49.200Z,101164.69
2022-09-10T10:02:21.514Z,101139.00
2022-09-10T10:05:07.158Z,101200.06
2022-09-10T10:07:37.579Z,101208.97
2022-09-10T10:10:08.902Z,101205.63
2022-09-10T10:12:49.057Z,101196.44
2022-09-10T10:15:38.797Z,101198.47
2022-09-10T10:18:31.955Z,101226.44
2022-09-10T10:21:21.272Z,101236.00
2022-09-10T10:23:51.153Z,101230.22
2022-09-10T10:26:31.276Z,101240.38
2022-09-10T10:29:04.233Z,101232.50
2022-09-10T10:31:42.912Z,101177.81
2022-09-10T10:34:45.251Z,101232.13
2022-09-10T10:37:29.091Z,101221.78
2022-09-10T10:40:21.676Z,101172.88
2022-09-10T10:43:00.860Z,101189.28
2022-09-10T10:45:44.689Z,101213.59
2022-09-10T10:48:20.988Z,101199.16
2022-09-10T10:50:58.240Z,101214.53
2022-09-10T10:53:48.531Z,101196.25
2022-09-10T10:56:26.085Z,101226.91
2022-09-10T10:59:24.900Z,101195.41
2022-09-10T11:01:59.036Z,101221.25
2022-09-10T11:04:36.775Z,101209.09
2022-09-10T11:07:13.061Z,101222.69
2022-09-10T11:09:46.420Z,101217.69
2022-09-10T11:12:21.526Z,101183.06
2022-09-10T11:14:56.125Z,101213.94
2022-09-10T11:17:34.982Z,101224.84
2022-09-10T11:20:30.355Z,101161.81
2022-09-10T11:23:12.152Z,101201.88
2022-09-10T11:25:53.223Z,101233.16
2022-09-10T11:28:37.501Z,101228.16
2022-09-10T11:31:14.030Z,101222.72
2022-09-10T11:33:53.294Z,101194.50
2022-09-10T11:36:30.828Z,101220.88
2022-09-10T11:39:15.245Z,101201.91
2022-09-10T11:41:47.777Z,101189.84
2022-09-10T11:44:38.825Z,101189.03
2022-09-10T11:47:15.480Z,101175.63
2022-09-10T11:49:51.360Z,101185.31
2022-09-10T11:52:22.275Z,101193.66
2022-09-10T11:54:51.596Z,101198.44
2022-09-10T11:57:34.908Z,101183.16
2022-09-10T12:00:16.505Z,101180.28
2022-09-10T12:03:36.629Z,101223.16
2022-09-10T12:06:13.091Z,101236.78
2022-09-10T12:09:07.908Z,101233.28
2022-09-10T12:11:48.931Z,101231.03
2022-09-10T12:14:21.738Z,101232.91
2022-09-10T12:16:55.251Z,101254.09
2022-09-10T12:19:29.262Z,101230.91
2022-09-10T12:22:04.104Z,101197.22
2022-09-10T12:24:36.213Z,101194.75
2022-09-10T12:27:07.372Z,101220.59
2022-09-10T12:29:38.307Z,101219.78
2022-09-10T12:32:30.184Z,101245.53
2022-09-10T12:35:48.594Z,101223.38
2022-09-10T12:38:50.080Z,101204.88
2022-09-10T12:41:58.657Z,101233.81
2022-09-10T12:44:57.328Z,101192.56
2022-09-10T12:47:52.669Z,101256.91
2022-09-10T12:50:46.329Z,101258.84
2022-09-10T12:54:10.894Z,101260.88
2022-09-10T12:57:18.855Z,101295.72
2022-09-10T13:00:18.160Z,101298.56
2022-09-10T13:02:58.252Z,101253.78
2022-09-10T13:05:32.710Z,101292.66
2022-09-10T13:08:18.601Z,101281.13
2022-09-10T13:11:03.330Z,101243.91
2022-09-10T13:13:40.366Z,101327.09
2022-09-10T13:16:17.231Z,101335.00
2022-09-10T13:18:48.319Z,101322.50
2022-09-10T13:21:55.366Z,101335.28
2022-09-10T13:25:00.819Z,101333.59
2022-09-10T13:27:41.785Z,101321.72
2022-09-10T13:30:19.492Z,101347.69
2022-09-10T13:32:53.282Z,101318.75
2022-09-10T13:36:06.632Z,101335.00
2022-09-10T13:39:31.614Z,101331.34
2022-09-10T13:42:31.264Z,101325.34
2022-09-10T13:45:30.163Z,101338.63
2022-09-10T13:48:06.543Z,101326.97
2022-09-10T13:50:41.606Z,101337.88
2022-09-10T13:53:15.110Z,101284.94
2022-09-10T13:55:56.605Z,101345.88
2022-09-10T13:58:29.383Z,101345.09
2022-09-10T14:01:02.813Z,101255.31
2022-09-10T14:03:33.284Z,101261.28
2022-09-10T14:06:04.262Z,101342.25
2022-09-10T14:08:38.539Z,101323.50
2022-09-10T14:11:15.216Z,101340.75
2022-09-10T14:13:48.137Z,101303.28
2022-09-10T14:16:22.005Z,101327.31
2022-09-10T14:18:58.377Z,101325.88
2022-09-10T14:21:28.123Z,101331.25
2022-09-10T14:24:00.202Z,101304.63
2022-09-10T14:26:33.516Z,101305.06
2022-09-10T14:29:04.802Z,101336.19
2022-09-10T14:31:37.678Z,101310.19
2022-09-10T14:34:26.064Z,101344.69
2022-09-10T14:36:54.592Z,101295.94
2022-09-10T14:39:25.222Z,101354.47
2022-09-10T14:42:10.512Z,101351.19
2022-09-10T14:44:43.305Z,101349.00
2022-09-10T14:47:26.979Z,101359.84
2022-09-10T14:49:57.221Z,101348.78
2022-09-10T14:52:25.652Z,101372.28
2022-09-10T14:54:56.197Z,101375.72
2022-09-10T14:57:24.621Z,101369.09
2022-09-10T14:59:57.247Z,101364.50
2022-09-10T15:02:29.306Z,101326.03
2022-09-10T15:04:57.626Z,101373.19
2022-09-10T15:07:27.488Z,101348.66
2022-09-10T15:09:57.158Z,101360.63
2022-09-10T15:12:29.003Z,101350.00
2022-09-10T15:14:59.027Z,101352.03
2022-09-10T15:17:28.017Z,101354.88
2022-09-10T15:19:56.461Z,101355.75
2022-09-10T15:22:27.564Z,101362.16
2022-09-10T15:25:10.075Z,101311.75
2022-09-10T15:27:39.505Z,101346.47
2022-09-10T15:30:09.439Z,101371.44
2022-09-10T15:32:37.838Z,101363.34
2022-09-10T15:35:07.227Z,101342.91
2022-09-10T15:37:35.528Z,101378.69
2022-09-10T15:40:06.375Z,101348.50
2022-09-10T15:42:35.047Z,101379.91
2022-09-10T15:45:03.366Z,101367.63
2022-09-10T15:47:33.588Z,101372.94
2022-09-10T15:50:01.862Z,101367.16
2022-09-10T15:52:30.216Z,101365.56
2022-09-10T15:54:58.651Z,101348.22
2022-09-10T15:57:29.430Z,101386.13
2022-09-10T15:59:58.060Z,101399.78
2022-09-10T16:02:26.445Z,101399.63
2022-09-10T16:04:55.009Z,101378.06
2022-09-10T16:07:23.370Z,101402.47
2022-09-10T16:09:51.805Z,101343.69
2022-09-10T16:12:20.263Z,101405.56
2022-09-10T16:14:53.511Z,101366.44
2022-09-10T16:17:22.121Z,101395.75
2022-09-10T16:19:51.551Z,101390.34
2022-09-10T16:22:20.831Z,101401.81
2022-09-10T16:24:49.259Z,101384.63
2022-09-10T16:27:18.013Z,101363.09
2022-09-10T16:29:48.451Z,101394.19
2022-09-10T16:32:18.104Z,101385.88
2022-09-10T16:34:46.403Z,101412.19
2022-09-10T16:37:15.029Z,101382.41
2022-09-10T16:39:43.382Z,101423.72
2022-09-10T16:42:11.931Z,101410.91
2022-09-10T16:44:41.340Z,101424.34
2022-09-10T16:47:09.799Z,101412.91
2022-09-10T16:49:39.602Z,101437.03
2022-09-10T16:52:07.985Z,101447.38
2022-09-10T16:54:38.354Z,101439.59
2022-09-10T16:57:06.700Z,101426.84
2022-09-10T16:59:35.183Z,101457.84
2022-09-10T17:02:04.704Z,101431.22
2022-09-10T17:04:34.626Z,101437.09
2022-09-10T17:07:04.369Z,101461.13
2022-09-10T17:09:32.805Z,101465.41
2022-09-10T17:12:01.430Z,101479.09
2022-09-10T17:14:29.980Z,101468.75
2022-09-10T17:16:58.623Z,101476.84
2022-09-10T17:19:29.244Z,101462.91
2022-09-10T17:21:57.959Z,101490.75
2022-09-10T17:24:28.690Z,101495.19
2022-09-10T17:26:57.728Z,101462.00
2022-09-10T17:29:27.397Z,101472.88
2022-09-10T17:31:57.429Z,101486.28
2022-09-10T17:34:27.132Z,101498.13
2022-09-10T17:36:56.217Z,101521.97
2022-09-10T17:39:28.223Z,101507.25
2022-09-10T17:41:58.899Z,101531.56
2022-09-10T17:44:27.679Z,101540.63
2022-09-10T17:46:56.265Z,101543.28
2022-09-10T17:49:24.679Z,101543.84
2022-09-10T17:51:53.452Z,101540.03
2022-09-10T17:54:23.416Z,101538.50
2022-09-10T17:56:51.740Z,101549.69
2022-09-10T17:59:22.039Z,101550.34
2022-09-10T18:01:50.619Z,101555.88
2022-09-10T18:04:21.689Z,101535.78
2022-09-10T18:06:52.450Z,101563.97
2022-09-10T18:09:21.993Z,101552.59
2022-09-10T18:11:50.490Z,101549.09
2022-09-10T18:14:23.950Z,101558.91
2022-09-10T18:16:52.420Z,101570.31
2022-09-10T18:19:20.815Z,101578.63
2022-09-10T18:21:51.038Z,101590.56
2022-09-10T18:24:22.452Z,101564.91
2022-09-10T18:26:53.724Z,101600.53
2022-09-10T18:29:25.904Z,101604.97
2022-09-10T18:31:56.961Z,101610.31
2022-09-10T18:34:27.808Z,101616.88
2022-09-10T18:36:59.132Z,101594.16
2022-09-10T18:39:29.693Z,101610.31
2022-09-10T18:41:59.710Z,101625.28
2022-09-10T18:44:33.157Z,101624.56
2022-09-10T18:47:02.028Z,101655.59
2022-09-10T18:49:30.676Z,101667.00
2022-09-10T18:51:59.212Z,101659.84
2022-09-10T18:54:29.682Z,101673.19
2022-09-10T18:56:58.605Z,101672.38
2022-09-10T18:59:28.823Z,101684.97
2022-09-10T19:01:57.332Z,101668.28
2022-09-10T19:04:28.716Z,101692.13
2022-09-10T19:06:58.403Z,101669.31
2022-09-10T19:09:29.483Z,101678.06
2022-09-10T19:12:00.298Z,101703.56
2022-09-10T19:14:32.234Z,101709.03
2022-09-10T19:17:02.332Z,101696.78
2022-09-10T19:19:33.192Z,101715.28
2022-09-10T19:22:07.182Z,101725.97
2022-09-10T19:24:54.919Z,101670.47
2022-09-10T19:27:24.288Z,101682.81
2022-09-10T19:29:54.208Z,101703.13
2022-09-10T19:32:23.004Z,101700.53
2022-09-10T19:34:52.205Z,101688.25
2022-09-10T19:37:21.030Z,101751.88
2022-09-10T19:39:49.562Z,101762.50
2022-09-10T19:42:18.410Z,101713.06
2022-09-10T19:44:46.853Z,101767.75
2022-09-10T19:47:16.647Z,101764.25
2022-09-10T19:49:45.054Z,101775.78
2022-09-10T19:52:14.820Z,101747.50
2022-09-10T19:54:43.154Z,101712.19
2022-09-10T19:57:11.625Z,101773.00
2022-09-10T19:59:40.126Z,101758.88
2022-09-10T20:02:10.347Z,101764.22
2022-09-10T20:04:40.213Z,101758.91
2022-09-10T20:07:08.647Z,101764.22
2022-09-10T20:09:39.985Z,101764.28
2022-09-10T20:12:09.789Z,101761.56
2022-09-10T20:14:38.523Z,101748.31
2022-09-10T20:17:06.979Z,101766.91
2022-09-10T20:19:35.581Z,101740.44
2022-09-10T20:22:05.327Z,101725.41
2022-09-10T20:24:34.127Z,101728.97
2022-09-10T20:27:02.535Z,101776.63
2022-09-10T20:29:32.927Z,101776.69
2022-09-10T20:32:01.525Z,101788.16
2022-09-10T20:34:31.284Z,101793.47
2022-09-10T20:36:59.900Z,101805.84
2022-09-10T20:39:31.647Z,101805.88
2022-09-10T20:42:00.648Z,101794.34
2022-09-10T20:44:30.030Z,101811.16
2022-09-10T20:46:58.353Z,101780.22
2022-09-10T20:49:27.993Z,101803.22
2022-09-10T20:51:57.145Z,101768.78
2022-09-10T20:54:25.444Z,101810.28
2022-09-10T20:56:55.137Z,101818.22
2022-09-10T20:59:27.678Z,101769.69
2022-09-10T21:01:56.695Z,101766.16
2022-09-10T21:04:26.419Z,101816.47
2022-09-10T21:06:55.187Z,101818.22
2022-09-10T21:09:23.534Z,101806.75
2022-09-10T21:11:51.882Z,101804.97
2022-09-10T21:14:21.649Z,101825.28
2022-09-10T21:16:49.944Z,101808.53
2022-09-10T21:19:18.859Z,101825.28
2022-09-10T21:21:48.987Z,101833.28
2022-09-10T21:24:20.168Z,101821.75
2022-09-10T21:26:49.179Z,101835.03
2022-09-10T21:29:21.624Z,101816.50
2022-09-10T21:31:50.853Z,101840.31
2022-09-10T21:34:19.531Z,101787.34
2022-09-10T21:36:47.803Z,101833.25
2022-09-10T21:39:18.326Z,101821.78
2022-09-10T21:41:49.164Z,101824.44
2022-09-10T21:44:20.053Z,101811.19
2022-09-10T21:46:50.656Z,101799.69
2022-09-10T21:49:20.180Z,101786.38
2022-09-10T21:51:49.089Z,101835.88
2022-09-10T21:54:20.873Z,101820.88
2022-09-10T21:56:50.162Z,101823.53
2022-09-10T21:59:19.308Z,101817.34
2022-09-10T22:01:50.351Z,101836.75
2022-09-10T22:04:22.726Z,101841.19
2022-09-10T22:06:52.032Z,101841.19
2022-09-10T22:09:21.356Z,101813.81
2022-09-10T22:11:53.081Z,101810.19
2022-09-10T22:14:24.132Z,101812.84
2022-09-10T22:16:55.000Z,101845.53
2022-09-10T22:19:27.368Z,101830.50
2022-09-10T22:21:56.830Z,101820.75
2022-09-10T22:24:26.215Z,101852.56
2022-09-10T22:26:54.745Z,101844.63
2022-09-10T22:29:23.331Z,101859.59
2022-09-10T22:31:53.104Z,101809.22
2022-09-10T22:34:22.563Z,101863.97
2022-09-10T22:36:50.917Z,101870.13
2022-09-10T22:39:21.872Z,101878.06
2022-09-10T22:41:51.970Z,101871.81
2022-09-10T22:44:20.458Z,101893.03
2022-09-10T22:46:49.143Z,101817.94
2022-09-10T22:49:19.882Z,101893.03
2022-09-10T22:51:49.060Z,101891.22
2022-09-10T22:54:17.721Z,101889.47
2022-09-10T22:56:46.079Z,101901.84
2022-09-10T22:59:16.695Z,101876.25
2022-09-10T23:01:47.696Z,101885.09
2022-09-10T23:04:18.270Z,101880.63
2022-09-10T23:06:46.717Z,101891.22
2022-09-10T23:09:17.419Z,101857.59
2022-09-10T23:11:46.498Z,101892.09
2022-09-10T23:14:17.862Z,101882.22
2022-09-10T23:16:49.173Z,101865.44
2022-09-10T23:19:22.175Z,101873.41
2022-09-10T23:21:52.865Z,101885.72
2022-09-10T23:24:24.281Z,101883.94
2022-09-10T23:26:53.219Z,101908.69
2022-09-10T23:29:23.324Z,101884.78
2022-09-10T23:31:53.286Z,101915.72
2022-09-10T23:34:23.895Z,101917.44
2022-09-10T23:36:53.589Z,101917.47
2022-09-10T23:39:24.417Z,101903.28
2022-09-10T23:41:55.574Z,101867.94
2022-09-10T23:44:24.352Z,101914.81
2022-09-10T23:46:53.503Z,101918.41
2022-09-10T23:49:24.138Z,101892.75
2022-09-10T23:51:52.564Z,101907.78
2022-09-10T23:54:20.945Z,101840.44
2022-09-10T23:56:49.278Z,101906.81
2022-09-10T23:59:17.813Z,101894.34
